createdAt,value
2019-05-01T00:02:54.930Z,10.28
2019-05-01T00:07:57.465Z,9.52
2019-05-01T00:13:00.320Z,9.11
2019-05-01T00:18:02.708Z,8.68
2019-05-01T00:23:05.232Z,9.15
2019-05-01T00:28:07.647Z,9.15
2019-05-01T00:33:13.045Z,8.72
2019-05-01T00:38:15.501Z,8.32
2019-05-01T00:43:18.140Z,8.98
2019-05-01T00:48:20.646Z,8.99
2019-05-01T00:53:23.360Z,8.67
2019-05-01T00:58:25.986Z,9.25
2019-05-01T01:03:28.681Z,8.90
2019-05-01T01:08:31.261Z,8.50
2019-05-01T01:13:33.979Z,8.24
2019-05-01T01:18:36.497Z,8.36
2019-05-01T01:23:39.055Z,8.66
2019-05-01T01:28:41.913Z,8.65
2019-05-01T01:33:44.685Z,8.07
2019-05-01T01:38:47.185Z,8.22
2019-05-01T01:43:49.907Z,8.16
2019-05-01T01:48:52.268Z,7.76
2019-05-01T01:53:54.987Z,7.64
2019-05-01T01:58:57.429Z,7.99
2019-05-01T02:04:00.041Z,7.38
2019-05-01T02:09:02.619Z,7.88
2019-05-01T02:14:05.375Z,7.99
2019-05-01T02:19:08.001Z,7.91
2019-05-01T02:24:10.809Z,7.68
2019-05-01T02:29:13.367Z,8.01
2019-05-01T02:34:15.927Z,8.59
2019-05-01T02:39:18.447Z,7.80
2019-05-01T02:44:21.024Z,7.68
2019-05-01T02:49:23.444Z,8.10
2019-05-01T02:54:25.897Z,7.84
2019-05-01T02:59:28.352Z,7.47
2019-05-01T03:04:31.157Z,7.40
2019-05-01T03:09:33.636Z,6.80
2019-05-01T03:14:36.450Z,7.73
2019-05-01T03:19:39.154Z,7.44
2019-05-01T03:24:41.783Z,7.36
2019-05-01T03:29:44.219Z,7.16
2019-05-01T03:34:52.407Z,7.36
2019-05-01T03:39:48.838Z,7.41
2019-05-01T03:44:51.365Z,7.06
2019-05-01T03:49:53.806Z,6.92
2019-05-01T03:54:56.340Z,7.23
2019-05-01T03:59:58.849Z,7.13
2019-05-01T04:05:01.575Z,6.73
2019-05-01T04:10:03.981Z,6.99
2019-05-01T04:15:06.612Z,7.15
2019-05-01T04:20:09.187Z,6.86
2019-05-01T04:25:11.793Z,6.90
2019-05-01T04:30:14.291Z,6.97
2019-05-01T04:35:17.044Z,6.93
2019-05-01T04:40:19.659Z,6.86
2019-05-01T04:45:22.542Z,6.74
2019-05-01T04:50:25.013Z,6.62
2019-05-01T04:55:27.657Z,6.57
2019-05-01T05:00:30.070Z,6.54
2019-05-01T05:05:32.802Z,6.62
2019-05-01T05:10:35.230Z,6.72
2019-05-01T05:15:37.707Z,6.87
2019-05-01T05:20:40.099Z,6.31
2019-05-01T05:25:42.720Z,6.91
2019-05-01T05:30:45.165Z,6.58
2019-05-01T05:35:47.797Z,7.30
2019-05-01T05:40:50.187Z,7.35
2019-05-01T05:45:52.779Z,6.89
2019-05-01T05:50:55.275Z,7.13
2019-05-01T05:55:58.030Z,6.70
2019-05-01T06:01:00.824Z,6.82
2019-05-01T06:06:03.593Z,7.11
2019-05-01T06:11:06.236Z,7.03
2019-05-01T06:16:12.194Z,6.86
2019-05-01T06:21:12.927Z,6.74
2019-05-01T06:26:13.047Z,6.72
2019-05-01T06:31:17.795Z,6.50
2019-05-01T06:36:17.904Z,6.69
2019-05-01T06:41:20.356Z,6.69
2019-05-01T06:46:27.400Z,6.65
2019-05-01T06:51:25.093Z,6.56
2019-05-01T06:56:27.721Z,6.55
2019-05-01T07:01:30.326Z,6.18
2019-05-01T07:06:33.345Z,6.30
2019-05-01T07:11:35.985Z,6.08
2019-05-01T07:16:39.338Z,6.03
2019-05-01T07:21:40.526Z,5.99
2019-05-01T07:26:43.824Z,6.32
2019-05-01T07:31:45.302Z,5.88
2019-05-01T07:36:50.134Z,5.90
2019-05-01T07:41:50.407Z,5.88
2019-05-01T07:46:54.067Z,6.03
2019-05-01T07:51:56.038Z,6.09
2019-05-01T07:57:02.840Z,5.72
2019-05-01T08:02:00.831Z,5.80
2019-05-01T08:07:03.551Z,6.30
2019-05-01T08:12:06.021Z,5.74
2019-05-01T08:17:12.744Z,5.71
2019-05-01T08:22:10.850Z,5.61
2019-05-01T08:27:15.712Z,5.27
2019-05-01T08:32:15.559Z,5.67
2019-05-01T08:37:22.532Z,5.54
2019-05-01T08:42:20.286Z,5.46
2019-05-01T08:47:25.923Z,5.69
2019-05-01T08:52:25.030Z,5.38
2019-05-01T08:57:29.247Z,5.52
2019-05-01T09:02:29.946Z,5.85
2019-05-01T09:07:32.597Z,5.57
2019-05-01T09:12:35.425Z,5.28
2019-05-01T09:17:38.091Z,5.09
2019-05-01T09:22:40.691Z,5.18
2019-05-01T09:27:43.521Z,4.94
2019-05-01T09:32:53.655Z,5.05
2019-05-01T09:37:48.314Z,6.09
2019-05-01T09:42:54.719Z,5.82
2019-05-01T09:47:53.322Z,5.47
2019-05-01T09:52:59.736Z,5.49
2019-05-01T09:57:58.081Z,5.09
2019-05-01T10:03:00.596Z,5.27
2019-05-01T10:08:04.175Z,4.96
2019-05-01T10:13:05.255Z,4.55
2019-05-01T10:18:07.948Z,4.85
2019-05-01T10:23:14.987Z,4.54
2019-05-01T10:28:17.717Z,4.32
2019-05-01T10:33:24.375Z,4.84
2019-05-01T10:38:27.684Z,4.17
2019-05-01T10:43:41.517Z,4.65
2019-05-01T10:48:35.372Z,4.07
2019-05-01T10:53:39.245Z,4.17
2019-05-01T10:58:43.660Z,4.55
2019-05-01T11:03:48.016Z,4.53
2019-05-01T11:08:52.487Z,4.51
2019-05-01T11:13:56.176Z,4.23
2019-05-01T11:18:58.888Z,4.53
2019-05-01T11:24:01.395Z,4.26
2019-05-01T11:29:04.161Z,3.97
2019-05-01T11:34:06.999Z,4.20
2019-05-01T11:39:09.636Z,4.04
2019-05-01T11:44:13.113Z,3.81
2019-05-01T11:49:15.793Z,4.43
2019-05-01T11:54:18.387Z,3.84
2019-05-01T11:59:21.083Z,4.14
2019-05-01T12:04:23.759Z,3.97
2019-05-01T12:09:26.444Z,3.75
2019-05-01T12:14:28.957Z,3.84
2019-05-01T12:19:32.107Z,3.85
2019-05-01T12:24:34.815Z,3.93
2019-05-01T12:29:37.472Z,3.79
2019-05-01T12:34:40.116Z,3.42
2019-05-01T12:39:42.746Z,3.08
2019-05-01T12:44:45.463Z,3.67
2019-05-01T12:49:48.284Z,3.02
2019-05-01T12:54:52.061Z,2.67
2019-05-01T12:59:53.011Z,3.14
2019-05-01T13:04:55.597Z,3.05
2019-05-01T13:09:58.278Z,3.70
2019-05-01T13:15:00.864Z,2.88
2019-05-01T13:20:02.439Z,3.43
2019-05-01T13:25:05.086Z,3.18
2019-05-01T13:30:08.005Z,2.76
2019-05-01T13:35:11.643Z,2.60
2019-05-01T13:40:15.589Z,2.36
2019-05-01T13:45:18.400Z,2.41
2019-05-01T13:50:22.097Z,2.56
2019-05-01T13:55:25.613Z,2.58
2019-05-01T14:00:28.167Z,2.96
2019-05-01T14:05:30.771Z,2.68
2019-05-01T14:10:33.548Z,2.62
2019-05-01T14:15:36.360Z,2.81
2019-05-01T14:20:39.958Z,2.51
2019-05-01T14:25:42.584Z,2.67
2019-05-01T14:30:45.299Z,2.56
2019-05-01T14:35:47.897Z,2.80
2019-05-01T14:40:50.631Z,2.76
2019-05-01T14:45:55.882Z,2.98
2019-05-01T14:50:55.499Z,2.67
2019-05-01T14:55:58.260Z,2.66
2019-05-01T15:01:01.118Z,2.56
2019-05-01T15:06:03.723Z,2.86
2019-05-01T15:11:06.612Z,2.98
2019-05-01T15:16:09.265Z,2.75
2019-05-01T15:21:12.061Z,2.72
2019-05-01T15:26:15.880Z,2.63
2019-05-01T15:31:18.678Z,2.92
2019-05-01T15:36:21.307Z,2.94
2019-05-01T15:41:23.994Z,2.79
2019-05-01T15:46:28.165Z,3.07
2019-05-01T15:51:30.939Z,3.01
2019-05-01T15:56:33.868Z,2.82
2019-05-01T16:01:37.798Z,2.88
2019-05-01T16:06:40.829Z,2.93
2019-05-01T16:11:43.679Z,3.74
2019-05-01T16:16:46.293Z,3.15
2019-05-01T16:21:48.951Z,3.02
2019-05-01T16:26:51.547Z,3.19
2019-05-01T16:31:54.684Z,3.04
2019-05-01T16:36:57.267Z,3.52
2019-05-01T16:41:59.840Z,3.66
2019-05-01T16:47:02.373Z,3.03
2019-05-01T16:52:05.047Z,3.48
2019-05-01T16:57:07.597Z,3.47
2019-05-01T17:02:10.348Z,3.07
2019-05-01T17:07:12.973Z,3.47
2019-05-01T17:12:15.666Z,3.35
2019-05-01T17:17:18.217Z,2.78
2019-05-01T17:22:20.937Z,2.92
2019-05-01T17:27:23.534Z,2.91
2019-05-01T17:32:26.110Z,2.11
2019-05-01T17:37:27.253Z,2.19
2019-05-01T17:42:32.907Z,2.22
2019-05-01T17:47:31.989Z,2.26
2019-05-01T17:52:34.621Z,2.31
2019-05-01T17:57:37.450Z,2.22
2019-05-01T18:02:40.170Z,2.23
2019-05-01T18:07:43.157Z,2.34
2019-05-01T18:12:45.873Z,2.62
2019-05-01T18:17:48.585Z,2.12
2019-05-01T18:22:51.088Z,2.15
2019-05-01T18:27:54.536Z,2.15
2019-05-01T18:32:55.819Z,1.92
2019-05-01T18:37:58.589Z,2.11
2019-05-01T18:43:01.193Z,2.05
2019-05-01T18:48:03.863Z,2.08
2019-05-01T18:53:11.006Z,2.47
2019-05-01T18:58:08.704Z,2.34
2019-05-01T19:03:11.337Z,2.55
2019-05-01T19:08:13.838Z,2.73
2019-05-01T19:13:16.634Z,2.70
2019-05-01T19:18:19.187Z,2.57
2019-05-01T19:23:22.197Z,2.57
2019-05-01T19:28:23.930Z,2.64
2019-05-01T19:33:26.584Z,3.19
2019-05-01T19:38:29.367Z,2.82
2019-05-01T19:43:31.221Z,3.01
2019-05-01T19:48:33.742Z,3.13
2019-05-01T19:53:35.268Z,2.98
2019-05-01T19:58:40.520Z,2.88
2019-05-01T20:03:43.100Z,2.93
2019-05-01T20:08:45.705Z,2.68
2019-05-01T20:13:48.280Z,2.54
2019-05-01T20:18:50.794Z,2.78
2019-05-01T20:23:53.464Z,2.47
2019-05-01T20:28:57.491Z,2.34
2019-05-01T20:33:58.114Z,2.17
2019-05-01T20:39:01.794Z,2.04
2019-05-01T20:44:04.348Z,2.06
2019-05-01T20:49:09.719Z,2.16
2019-05-01T20:54:12.438Z,1.75
2019-05-01T20:59:15.305Z,1.98
2019-05-01T21:04:17.887Z,1.64
2019-05-01T21:09:20.689Z,1.83
2019-05-01T21:14:23.293Z,1.82
2019-05-01T21:19:28.022Z,2.05
2019-05-01T21:24:28.326Z,1.80
2019-05-01T21:29:31.301Z,1.79
2019-05-01T21:34:34.319Z,1.75
2019-05-01T21:39:37.002Z,1.79
2019-05-01T21:44:43.620Z,1.64
2019-05-01T21:49:44.245Z,1.67
2019-05-01T21:54:50.152Z,1.56
2019-05-01T21:59:48.706Z,1.71
2019-05-01T22:04:51.228Z,1.71
2019-05-01T22:09:53.670Z,1.49
2019-05-01T22:14:56.250Z,1.36
2019-05-01T22:19:58.694Z,1.41
2019-05-01T22:25:02.421Z,1.46
2019-05-01T22:30:10.808Z,1.55
2019-05-01T22:35:08.599Z,1.43
2019-05-01T22:40:11.333Z,1.43
2019-05-01T22:45:14.003Z,1.62
2019-05-01T22:50:16.735Z,1.26
2019-05-01T22:55:20.342Z,1.32
2019-05-01T23:00:21.604Z,1.25
2019-05-01T23:05:27.861Z,1.34
2019-05-01T23:10:26.137Z,1.42
2019-05-01T23:15:28.514Z,1.31
2019-05-01T23:20:34.654Z,1.35
2019-05-01T23:25:36.636Z,1.28
2019-05-01T23:30:36.281Z,1.33
2019-05-01T23:35:38.873Z,1.24
2019-05-01T23:40:41.470Z,1.12
2019-05-01T23:45:43.866Z,1.09
2019-05-01T23:50:46.504Z,1.08
2019-05-01T23:55:48.902Z,0.91
